North Wilmurt, New York
Current Conditions -  °F | °C
As of 6:01 PM on Tuesday 21 Oct 2014 (Local Time) from KRME Reporting Station
Overcast Overcast  
Wind Chill: 52°   Ceiling: 2000
Heat Index: 52°   Visibility: 10mi
Dew Point: 48°   Wind: 6mph
Humidity: 86%   Direction: 90°E
Pressure: 29.94"   Gusts: NA
Location:  43.3537°N, 75.1636°W
Report Text: KRME 212201Z 09005KT 10SM BKN020 OVC040 11/09 A2994 RMK AO2 T01110089
Loading
Personal Weather Stations






























Interactive Weather Map
Tropical Storm Tracking
New forecast layout! Learn more

10-Day Weather Forecast

Advertisements
Track Severe Weather on mobile